Time;durP1;ratioP1;P1;durP2;ratioP2;P2;SDS_P1;SDS_P2;PMS_P1;PMS_P2;Temp;Humidity;BMP_temperature;BMP_pressure;BME280_temperature;BME280_humidity;BME280_pressure;Samples;Min_cycle;Max_cycle;Signal;HPM_P1;HPM_P2
2022/05/10 00:02:10;;;;;;;6.47;5.65;;;16.60;99.90;;;;;;5013391;28;20041;-88
2022/05/10 00:04:36;;;;;;;7.32;5.20;;;16.60;99.90;;;;;;5013522;28;20096;-86
2022/05/10 00:07:02;;;;;;;8.90;5.75;;;16.60;99.90;;;;;;5014246;28;20108;-87
2022/05/10 00:09:29;;;;;;;8.43;5.45;;;16.60;99.90;;;;;;5015005;28;20029;-88
2022/05/10 00:11:57;;;;;;;6.43;5.50;;;16.50;99.90;;;;;;5013515;28;20111;-88
2022/05/10 00:14:24;;;;;;;6.80;5.25;;;16.40;99.90;;;;;;5013731;28;20073;-88
2022/05/10 00:16:51;;;;;;;8.57;5.80;;;16.50;99.90;;;;;;5013185;28;20033;-87
2022/05/10 00:19:18;;;;;;;9.57;5.25;;;16.40;99.90;;;;;;5014735;28;20080;-88
2022/05/10 00:21:45;;;;;;;6.15;5.43;;;16.40;99.90;;;;;;5015303;28;20026;-87
2022/05/10 00:24:11;;;;;;;7.53;6.10;;;16.40;99.90;;;;;;5016681;28;20116;-88
2022/05/10 00:26:37;;;;;;;5.93;5.05;;;16.30;99.90;;;;;;5017130;28;20060;-81
2022/05/10 00:29:02;;;;;;;7.35;5.10;;;16.30;99.90;;;;;;5033444;28;20363;-90
2022/05/10 00:31:29;;;;;;;8.68;5.63;;;16.30;99.90;;;;;;5016794;28;20037;-91
2022/05/10 00:33:55;;;;;;;6.10;5.45;;;16.30;99.90;;;;;;5033685;28;20469;-90
2022/05/10 00:36:23;;;;;;;6.78;5.00;;;16.20;99.90;;;;;;5034165;28;20036;-91
2022/05/10 00:38:50;;;;;;;7.72;5.30;;;16.20;99.90;;;;;;5016271;28;20386;-90
2022/05/10 00:41:27;;;;;;;8.45;5.15;;;16.20;99.90;;;;;;5016648;28;20454;-90
2022/05/10 00:44:10;;;;;;;6.38;4.60;;;16.20;99.90;;;;;;5016306;28;20129;-91
2022/05/10 00:46:41;;;;;;;8.48;5.60;;;16.20;99.90;;;;;;5016552;28;20035;-90
2022/05/10 00:49:24;;;;;;;7.40;5.17;;;16.20;99.90;;;;;;5034340;28;20029;-91
2022/05/10 00:52:07;;;;;;;6.97;5.30;;;16.10;99.90;;;;;;5033130;28;20108;-89
2022/05/10 00:54:59;;;;;;;7.80;5.43;;;16.10;99.90;;;;;;5016710;28;20041;-89
2022/05/10 00:57:28;;;;;;;6.55;4.95;;;16.10;99.90;;;;;;5016643;28;20021;-88
2022/05/10 01:00:08;;;;;;;7.15;5.28;;;16.00;99.90;;;;;;5016076;28;20033;-89
2022/05/10 01:02:33;;;;;;;7.03;5.40;;;16.00;99.90;;;;;;5033970;28;20037;-90
2022/05/10 01:05:07;;;;;;;8.45;5.13;;;15.90;99.90;;;;;;5033401;28;20079;-89
2022/05/10 01:07:49;;;;;;;8.70;5.63;;;15.90;99.90;;;;;;5016564;28;20069;-90
2022/05/10 01:10:39;;;;;;;5.90;4.80;;;15.90;99.90;;;;;;5016529;28;20103;-91
2022/05/10 01:13:22;;;;;;;8.50;5.45;;;15.90;99.90;;;;;;4986433;28;20038;-90
2022/05/10 01:15:59;;;;;;;5.95;5.25;;;15.90;99.90;;;;;;5020131;28;20033;-90
2022/05/10 01:18:25;;;;;;;7.72;5.40;;;15.80;99.90;;;;;;5020468;28;20033;-90
2022/05/10 01:20:57;;;;;;;6.25;5.40;;;15.80;99.90;;;;;;5036273;28;20122;-90
2022/05/10 01:23:32;;;;;;;6.43;5.28;;;15.80;99.90;;;;;;5016889;28;20062;-90
2022/05/10 01:26:09;;;;;;;6.82;5.15;;;15.70;99.90;;;;;;5016593;28;20117;-90
2022/05/10 01:28:41;;;;;;;8.40;6.20;;;15.60;99.90;;;;;;5016986;28;20030;-91
2022/05/10 01:31:14;;;;;;;6.78;5.35;;;15.60;99.90;;;;;;5017012;28;20457;-91
2022/05/10 01:33:46;;;;;;;6.93;5.50;;;15.60;99.90;;;;;;5017805;28;20030;-91
2022/05/10 01:36:20;;;;;;;6.78;5.82;;;15.60;99.90;;;;;;5017823;28;20459;-90
2022/05/10 01:39:16;;;;;;;8.05;5.50;;;15.60;99.90;;;;;;5017380;28;20382;-89
2022/05/10 01:41:50;;;;;;;7.55;5.60;;;15.50;99.90;;;;;;5017246;28;20107;-83
2022/05/10 01:44:37;;;;;;;6.63;5.70;;;15.50;99.90;;;;;;5016238;28;20033;-90
2022/05/10 01:47:14;;;;;;;7.82;5.55;;;15.40;99.90;;;;;;5016779;28;20375;-87
2022/05/10 01:49:45;;;;;;;6.53;5.10;;;15.50;99.90;;;;;;5016690;28;20032;-86
2022/05/10 01:52:37;;;;;;;9.02;6.03;;;15.40;99.90;;;;;;5016687;28;20030;-88
2022/05/10 01:55:06;;;;;;;;;;;15.30;99.90;;;;;;5016216;28;20057;-85
2022/05/10 01:57:34;;;;;;;8.38;5.40;;;15.30;99.90;;;;;;5017351;28;19928;-90
2022/05/10 02:00:27;;;;;;;5.65;5.07;;;15.30;99.90;;;;;;5016014;28;20045;-90
2022/05/10 02:03:18;;;;;;;9.68;5.80;;;15.30;99.90;;;;;;5013692;28;20041;-90
2022/05/10 02:06:02;;;;;;;7.18;5.32;;;15.30;99.90;;;;;;5015677;28;20068;-89
2022/05/10 02:08:55;;;;;;;7.82;5.38;;;15.30;99.90;;;;;;5017087;28;20049;-93
2022/05/10 02:11:23;;;;;;;5.88;5.28;;;15.20;99.90;;;;;;5017173;28;20022;-92
2022/05/10 02:13:56;;;;;;;7.10;6.10;;;15.20;99.90;;;;;;5015564;28;20029;-92
2022/05/10 02:16:35;;;;;;;6.90;5.97;;;15.20;99.90;;;;;;5016128;28;20475;-92
2022/05/10 02:19:23;;;;;;;7.88;5.68;;;15.20;99.90;;;;;;5015652;28;20054;-92
2022/05/10 02:21:58;;;;;;;6.30;5.45;;;15.10;99.90;;;;;;5017201;28;20034;-86
2022/05/10 02:24:34;;;;;;;7.32;5.72;;;15.00;99.90;;;;;;5036596;28;20037;-87
2022/05/10 02:27:08;;;;;;;7.18;5.68;;;15.00;99.90;;;;;;5035641;28;20029;-86
2022/05/10 02:29:49;;;;;;;8.32;5.38;;;15.00;99.90;;;;;;5036597;28;20033;-87
2022/05/10 02:35:15;;;;;;;9.32;5.53;;;15.00;99.90;;;;;;5036409;28;20056;-87
2022/05/10 02:37:42;;;;;;;7.95;5.15;;;14.90;99.90;;;;;;5019013;28;20471;-87
2022/05/10 02:40:09;;;;;;;10.48;5.82;;;14.80;99.90;;;;;;5035734;28;20134;-87
2022/05/10 02:42:35;;;;;;;7.40;5.47;;;14.80;99.90;;;;;;5018676;28;20401;-86
2022/05/10 02:45:03;;;;;;;6.93;5.53;;;14.80;99.90;;;;;;5034945;28;20036;-85
2022/05/10 02:47:30;;;;;;;10.68;5.35;;;14.90;99.90;;;;;;5036363;28;20152;-87
2022/05/10 02:49:56;;;;;;;7.35;5.43;;;14.90;99.90;;;;;;5018165;28;20025;-86
2022/05/10 02:52:23;;;;;;;7.53;5.35;;;14.80;99.90;;;;;;5018417;28;20072;-85
2022/05/10 02:55:06;;;;;;;7.13;5.50;;;14.70;99.90;;;;;;5017884;28;20029;-87
2022/05/10 02:57:32;;;;;;;9.45;5.53;;;14.60;99.90;;;;;;5035105;28;20031;-87
2022/05/10 03:00:00;;;;;;;7.65;6.07;;;14.60;99.90;;;;;;5017977;28;20022;-87
2022/05/10 03:02:31;;;;;;;7.60;5.53;;;14.50;99.90;;;;;;5018256;28;20442;-89
2022/05/10 03:04:59;;;;;;;6.90;5.47;;;14.50;99.90;;;;;;5017840;28;20025;-87
2022/05/10 03:07:29;;;;;;;7.97;6.18;;;14.40;99.90;;;;;;5035813;28;20480;-88
2022/05/10 03:09:54;;;;;;;8.07;5.75;;;14.30;99.90;;;;;;5035396;28;20116;-89
2022/05/10 03:12:20;;;;;;;7.47;6.30;;;14.30;99.90;;;;;;5018228;28;20123;-90
2022/05/10 03:14:46;;;;;;;8.40;5.63;;;14.20;99.90;;;;;;5018002;28;20033;-88
2022/05/10 03:17:12;;;;;;;7.45;6.15;;;14.20;99.90;;;;;;5035645;28;20032;-89
2022/05/10 03:19:40;;;;;;;7.43;5.80;;;14.20;99.90;;;;;;5036041;28;20021;-89
2022/05/10 03:22:06;;;;;;;8.18;6.22;;;14.20;99.90;;;;;;5018167;28;20087;-89
2022/05/10 03:24:31;;;;;;;6.95;5.72;;;14.10;99.90;;;;;;5018679;28;20030;-87
2022/05/10 03:26:59;;;;;;;7.28;5.80;;;14.20;99.90;;;;;;5018312;28;20504;-89
2022/05/10 03:29:25;;;;;;;8.90;6.50;;;14.10;99.90;;;;;;5019007;28;20030;-87
2022/05/10 03:31:51;;;;;;;6.93;5.78;;;14.10;99.90;;;;;;5035420;28;20120;-87
2022/05/10 03:37:01;;;;;;;7.97;6.07;;;14.10;99.90;;;;;;5033875;28;20421;-87
2022/05/10 03:39:27;;;;;;;7.65;5.65;;;14.00;99.90;;;;;;5017574;28;20022;-87
2022/05/10 03:41:53;;;;;;;7.18;6.07;;;14.00;99.90;;;;;;5034595;28;20083;-89
2022/05/10 03:44:18;;;;;;;8.43;5.80;;;14.10;99.90;;;;;;5017661;28;20033;-88
2022/05/10 03:46:45;;;;;;;7.90;5.97;;;14.10;99.90;;;;;;5017669;28;20409;-88
2022/05/10 03:49:11;;;;;;;7.90;6.15;;;14.10;99.90;;;;;;5017084;28;20033;-86
2022/05/10 03:51:37;;;;;;;8.20;6.22;;;14.10;99.90;;;;;;5035178;28;20030;-85
2022/05/10 03:54:03;;;;;;;8.38;6.45;;;14.10;99.90;;;;;;5017188;28;20524;-87
2022/05/10 03:56:29;;;;;;;8.02;5.97;;;14.10;99.90;;;;;;5017450;28;20057;-89
2022/05/10 03:59:12;;;;;;;9.10;6.18;;;14.10;99.90;;;;;;5111506;27;20420;-90
2022/05/10 04:01:38;;;;;;;8.73;6.25;;;14.10;99.90;;;;;;5111147;28;20035;-89
2022/05/10 04:04:04;;;;;;;7.63;6.05;;;14.10;99.90;;;;;;5110721;28;20353;-88
2022/05/10 04:06:30;;;;;;;9.05;6.05;;;14.00;99.90;;;;;;5111762;28;20028;-89
2022/05/10 04:08:56;;;;;;;9.30;5.90;;;13.90;99.90;;;;;;5144644;27;20034;-92
2022/05/10 04:11:22;;;;;;;9.60;5.97;;;13.80;99.90;;;;;;5111578;28;20055;-92
2022/05/10 04:13:47;;;;;;;7.70;5.88;;;13.90;99.90;;;;;;5110600;28;20437;-89
2022/05/10 04:16:13;;;;;;;8.13;6.07;;;13.90;99.90;;;;;;5110144;28;20020;-89
2022/05/10 04:18:39;;;;;;;7.53;5.97;;;13.90;99.90;;;;;;5110429;28;20034;-88
2022/05/10 04:21:05;;;;;;;6.82;5.90;;;13.90;99.90;;;;;;5110051;28;20157;-88
2022/05/10 04:23:31;;;;;;;9.30;6.75;;;14.00;99.90;;;;;;5110563;28;20035;-88
2022/05/10 04:26:10;;;;;;;8.25;6.30;;;13.90;99.90;;;;;;5110009;28;20023;-87
2022/05/10 04:28:36;;;;;;;7.95;6.05;;;13.80;99.90;;;;;;5110292;28;20036;-91
2022/05/10 04:31:04;;;;;;;8.70;6.15;;;13.70;99.90;;;;;;5109743;28;20027;-91
2022/05/10 04:33:30;;;;;;;6.70;5.75;;;13.80;99.90;;;;;;5110306;28;20368;-91
2022/05/10 04:35:56;;;;;;;8.25;6.13;;;13.80;99.90;;;;;;5109578;28;20023;-90
2022/05/10 04:38:21;;;;;;;7.25;5.78;;;13.80;99.90;;;;;;5111164;28;20055;-91
2022/05/10 04:43:35;;;;;;;8.02;6.00;;;13.90;99.90;;;;;;5111352;28;20042;-91
2022/05/10 04:46:01;;;;;;;7.90;6.50;;;14.00;99.90;;;;;;5109650;28;20110;-91
2022/05/10 04:48:27;;;;;;;7.90;6.00;;;13.90;99.90;;;;;;5110181;28;20020;-91
2022/05/10 04:50:53;;;;;;;7.57;5.90;;;13.90;99.90;;;;;;5109490;28;20031;-89
2022/05/10 04:53:19;;;;;;;7.43;5.78;;;13.90;99.90;;;;;;5109607;28;20024;-91
2022/05/10 04:55:45;;;;;;;8.25;6.55;;;14.00;99.90;;;;;;5109886;28;20035;-90
2022/05/10 04:58:13;;;;;;;9.20;7.15;;;14.00;99.90;;;;;;5110159;28;20048;-90
2022/05/10 05:00:39;;;;;;;11.40;6.55;;;14.00;99.90;;;;;;5109885;28;20035;-90
2022/05/10 05:03:04;;;;;;;9.73;6.40;;;14.00;99.90;;;;;;5110229;28;20020;-91
2022/05/10 05:05:30;;;;;;;8.95;6.50;;;14.10;99.90;;;;;;5109899;28;20020;-90
2022/05/10 05:07:55;;;;;;;8.40;6.78;;;14.10;99.90;;;;;;5109291;28;20043;-90
2022/05/10 05:10:21;;;;;;;10.05;6.68;;;14.20;99.90;;;;;;5097305;28;20024;-86
2022/05/10 05:12:47;;;;;;;9.05;6.90;;;14.20;99.90;;;;;;5095957;28;20111;-85
2022/05/10 05:15:13;;;;;;;8.15;6.20;;;14.20;99.90;;;;;;5095263;28;20024;-86
2022/05/10 05:17:39;;;;;;;8.80;6.40;;;14.30;99.90;;;;;;5095736;28;20028;-87
2022/05/10 05:20:05;;;;;;;8.88;6.93;;;14.30;99.90;;;;;;5096370;28;20035;-87
2022/05/10 05:22:31;;;;;;;9.55;6.50;;;14.40;99.90;;;;;;5095681;28;20107;-89
2022/05/10 05:24:57;;;;;;;11.82;7.10;;;14.50;99.90;;;;;;5095335;28;20055;-88
2022/05/10 05:27:22;;;;;;;8.10;5.93;;;14.60;99.90;;;;;;5096893;28;20047;-89
2022/05/10 05:29:48;;;;;;;8.60;6.20;;;14.60;99.90;;;;;;5096872;28;20082;-88
2022/05/10 05:32:17;;;;;;;7.28;6.32;;;14.70;99.90;;;;;;5095128;28;20128;-88
2022/05/10 05:34:43;;;;;;;7.15;6.07;;;14.70;99.90;;;;;;5078646;28;20024;-87
2022/05/10 05:39:52;;;;;;;8.10;6.38;;;14.80;99.90;;;;;;5096704;28;20038;-94
2022/05/10 05:42:18;;;;;;;9.13;6.45;;;14.90;99.90;;;;;;5094904;28;20115;-89
2022/05/10 05:44:44;;;;;;;7.70;6.65;;;15.00;99.90;;;;;;5095255;28;20035;-87
2022/05/10 05:47:10;;;;;;;8.68;6.07;;;15.00;99.90;;;;;;5128743;27;20028;-86
2022/05/10 05:49:36;;;;;;;10.60;6.53;;;15.10;99.90;;;;;;5096153;28;20117;-93
2022/05/10 05:52:04;;;;;;;9.77;6.72;;;15.20;99.90;;;;;;5095765;28;20083;-94
2022/05/10 05:54:31;;;;;;;8.70;7.03;;;15.30;99.90;;;;;;5096276;28;20020;-94
2022/05/10 05:57:05;;;;;;;11.57;7.68;;;15.40;99.90;;;;;;5094406;28;20024;-92
2022/05/10 05:59:32;;;;;;;10.98;7.15;;;15.50;99.90;;;;;;5095356;28;20050;-94
2022/05/10 06:01:57;;;;;;;11.07;7.60;;;15.60;99.90;;;;;;5094740;28;20027;-89
2022/05/10 06:04:23;;;;;;;9.40;7.63;;;15.70;99.90;;;;;;5096118;28;20059;-90
2022/05/10 06:06:49;;;;;;;9.13;7.18;;;15.80;99.90;;;;;;5094957;28;20469;-90
2022/05/10 06:09:15;;;;;;;9.98;7.50;;;15.80;99.90;;;;;;5095687;28;20517;-90
2022/05/10 06:11:40;;;;;;;12.75;7.80;;;15.90;99.90;;;;;;5128932;27;20123;-91
2022/05/10 06:14:07;;;;;;;11.18;8.07;;;16.00;99.90;;;;;;5094540;28;20089;-91
2022/05/10 06:16:33;;;;;;;12.30;7.63;;;16.00;99.90;;;;;;5094930;28;20024;-90
2022/05/10 06:18:58;;;;;;;10.18;7.40;;;16.10;99.90;;;;;;5095399;28;20133;-89
2022/05/10 06:21:24;;;;;;;11.13;7.47;;;16.20;99.90;;;;;;5093804;28;20119;-90
2022/05/10 06:23:50;;;;;;;13.63;8.02;;;16.30;99.90;;;;;;5094665;28;20024;-91
2022/05/10 06:26:15;;;;;;;14.63;7.60;;;16.30;99.90;;;;;;5094231;28;20383;-92
2022/05/10 06:28:41;;;;;;;11.85;7.78;;;16.40;99.90;;;;;;5095673;28;20040;-91
2022/05/10 06:31:09;;;;;;;10.80;7.60;;;16.50;99.90;;;;;;5094216;28;20077;-91
2022/05/10 06:33:35;;;;;;;12.20;7.75;;;16.50;99.90;;;;;;5094785;28;20031;-91
2022/05/10 06:36:00;;;;;;;10.40;7.50;;;16.50;99.90;;;;;;5094056;28;20028;-89
2022/05/10 06:38:27;;;;;;;10.73;7.53;;;16.60;99.90;;;;;;5094134;28;20177;-90
2022/05/10 06:40:59;;;;;;;11.52;7.53;;;16.70;99.90;;;;;;5094275;28;20024;-89
2022/05/10 06:43:25;;;;;;;9.77;7.10;;;16.70;99.90;;;;;;5094562;28;20032;-89
2022/05/10 06:45:51;;;;;;;12.13;6.80;;;16.70;99.90;;;;;;5094430;28;20093;-89
2022/05/10 06:48:16;;;;;;;12.02;7.78;;;16.80;99.90;;;;;;5093710;28;20035;-89
2022/05/10 06:50:43;;;;;;;11.60;7.32;;;16.90;99.90;;;;;;5095011;28;20028;-91
2022/05/10 06:53:10;;;;;;;10.63;7.28;;;17.00;99.90;;;;;;5093918;28;20057;-91
2022/05/10 06:55:38;;;;;;;15.38;7.95;;;17.10;99.90;;;;;;5094221;28;20039;-89
2022/05/10 06:58:04;;;;;;;12.80;8.18;;;17.10;99.90;;;;;;5100978;28;20052;-88
2022/05/10 07:00:34;;;;;;;12.07;6.78;;;17.10;99.90;;;;;;5114540;28;20023;-88
2022/05/10 07:03:08;;;;;;;9.30;7.20;;;17.20;99.90;;;;;;5115083;28;20028;-85
2022/05/10 07:05:34;;;;;;;16.17;7.63;;;17.20;99.90;;;;;;5113809;28;20024;-88
2022/05/10 07:08:00;;;;;;;9.35;6.90;;;17.30;99.90;;;;;;5114055;28;20031;-88
2022/05/10 07:10:26;;;;;;;10.10;7.15;;;17.30;99.90;;;;;;5114091;28;20069;-89
2022/05/10 07:12:53;;;;;;;9.35;6.60;;;17.30;99.90;;;;;;5148589;27;20028;-90
2022/05/10 07:15:19;;;;;;;9.48;6.57;;;17.40;99.90;;;;;;5113864;28;20030;-94
2022/05/10 07:17:45;;;;;;;9.35;6.03;;;17.40;99.90;;;;;;5114398;28;20035;-89
2022/05/10 07:20:13;;;;;;;9.88;6.70;;;17.50;99.90;;;;;;5113359;28;20108;-90
2022/05/10 07:22:39;;;;;;;10.57;7.32;;;17.60;99.90;;;;;;5114126;28;20093;-91
2022/05/10 07:25:06;;;;;;;10.40;6.68;;;17.60;99.90;;;;;;5113675;28;20041;-92
2022/05/10 07:27:32;;;;;;;12.32;7.07;;;17.60;99.90;;;;;;5113629;28;20039;-90
2022/05/10 07:29:58;;;;;;;9.88;6.82;;;17.70;99.90;;;;;;5099686;28;20032;-87
2022/05/10 07:32:25;;;;;;;9.02;6.32;;;17.70;99.90;;;;;;5091979;28;20059;-88
2022/05/10 07:34:51;;;;;;;8.82;6.38;;;17.80;99.90;;;;;;5093331;28;20024;-93
2022/05/10 07:37:17;;;;;;;9.68;6.80;;;17.90;99.90;;;;;;5092352;28;20127;-90
2022/05/10 07:39:42;;;;;;;9.45;6.70;;;17.90;99.90;;;;;;5092999;28;20022;-92
2022/05/10 07:42:08;;;;;;;10.00;6.70;;;18.00;99.90;;;;;;5092714;28;20110;-92
2022/05/10 07:44:34;;;;;;;9.63;7.22;;;18.00;99.90;;;;;;5092948;28;20539;-91
2022/05/10 07:47:00;;;;;;;9.05;6.55;;;18.00;99.90;;;;;;5094160;28;20025;-92
2022/05/10 07:49:26;;;;;;;12.77;7.18;;;18.10;99.90;;;;;;5106033;28;20031;-91
2022/05/10 07:51:52;;;;;;;13.07;7.50;;;18.10;99.90;;;;;;5104043;28;20017;-90
2022/05/10 07:54:18;;;;;;;11.32;6.97;;;18.20;99.90;;;;;;5101346;28;20024;-91
2022/05/10 07:56:44;;;;;;;8.23;6.30;;;18.20;99.90;;;;;;5107632;28;20469;-91
2022/05/10 07:59:10;;;;;;;11.30;6.68;;;18.30;99.90;;;;;;5111007;28;20056;-90
2022/05/10 08:01:36;;;;;;;12.45;6.88;;;18.30;99.90;;;;;;5102262;28;20028;-90
2022/05/10 08:04:03;;;;;;;10.48;6.65;;;18.30;99.90;;;;;;5101046;28;20034;-91
2022/05/10 08:06:29;;;;;;;10.10;6.43;;;18.30;99.90;;;;;;5104701;28;20449;-90
2022/05/10 08:08:54;;;;;;;8.68;6.95;;;18.40;99.90;;;;;;5136794;27;20020;-90
2022/05/10 08:11:20;;;;;;;10.48;6.65;;;18.40;99.90;;;;;;5096011;28;20077;-89
2022/05/10 08:13:47;;;;;;;11.15;7.30;;;18.50;99.90;;;;;;5096898;28;20031;-90
2022/05/10 08:16:13;;;;;;;13.27;8.07;;;18.50;99.90;;;;;;5097295;28;20036;-85
2022/05/10 08:18:40;;;;;;;11.50;7.30;;;18.50;99.90;;;;;;5097231;28;20035;-85
2022/05/10 08:21:06;;;;;;;17.30;9.25;;;18.60;99.90;;;;;;5091740;28;20479;-86
2022/05/10 08:23:35;;;;;;;14.10;8.40;;;18.60;99.90;;;;;;5102930;28;20030;-88
2022/05/10 08:26:02;;;;;;;13.32;8.60;;;18.70;99.90;;;;;;5100899;28;20024;-87
2022/05/10 08:28:30;;;;;;;12.38;7.00;;;18.70;99.90;;;;;;5103603;28;20116;-89
2022/05/10 08:30:56;;;;;;;8.80;6.20;;;18.80;99.90;;;;;;5098069;28;20024;-90
2022/05/10 08:33:28;;;;;;;8.93;6.50;;;18.90;99.90;;;;;;5101164;28;20028;-91
2022/05/10 08:35:55;;;;;;;8.43;6.10;;;19.00;99.90;;;;;;5093878;28;20028;-89
2022/05/10 08:38:21;;;;;;;8.73;5.88;;;19.10;99.90;;;;;;5098149;28;20036;-91
2022/05/10 08:40:51;;;;;;;7.65;5.75;;;19.20;99.90;;;;;;5097096;28;20069;-89
2022/05/10 08:43:31;;;;;;;8.88;5.93;;;19.20;99.90;;;;;;5094009;28;20035;-88
2022/05/10 08:45:57;;;;;;;10.43;5.35;;;19.30;99.90;;;;;;5103269;28;20452;-85
2022/05/10 08:48:28;;;;;;;7.35;6.05;;;19.30;99.90;;;;;;5104141;28;20077;-84
2022/05/10 08:50:54;;;;;;;9.10;6.20;;;19.40;99.90;;;;;;5108346;28;20031;-86
2022/05/10 08:53:20;;;;;;;7.00;5.53;;;19.50;99.90;;;;;;5096508;28;20438;-87
2022/05/10 08:56:07;;;;;;;8.13;5.53;;;19.50;99.90;;;;;;5096592;28;20036;-87
2022/05/10 08:58:38;;;;;;;5.80;4.78;;;19.60;99.90;;;;;;5095402;28;20082;-88
2022/05/10 09:01:12;;;;;;;6.45;5.35;;;19.70;99.90;;;;;;5095854;28;20024;-87
2022/05/10 09:03:57;;;;;;;8.38;5.65;;;19.80;99.90;;;;;;5083725;28;20457;-90
2022/05/10 09:06:23;;;;;;;9.00;5.82;;;19.80;99.90;;;;;;5123720;27;20024;-93
2022/05/10 09:09:25;;;;;;;7.47;5.78;;;20.00;99.90;;;;;;5103244;28;20023;-94
2022/05/10 09:12:09;;;;;;;;;;;20.00;99.90;;;;;;5098529;28;20028;-92
2022/05/10 09:14:53;;;;;;;7.45;5.30;;;20.10;99.80;;;;;;5105860;28;19915;-91
2022/05/10 09:17:19;;;;;;;7.43;5.18;;;20.10;99.90;;;;;;5100553;28;20445;-91
2022/05/10 09:19:45;;;;;;;8.63;5.90;;;20.20;99.90;;;;;;5106407;28;20062;-90
2022/05/10 09:22:42;;;;;;;30.80;18.98;;;20.30;99.90;;;;;;5104173;28;20028;-91
2022/05/10 09:25:27;;;;;;;9.77;7.07;;;20.30;99.90;;;;;;5101394;28;20024;-88
2022/05/10 09:27:56;;;;;;;6.10;5.32;;;20.50;99.70;;;;;;5101722;28;20036;-88
2022/05/10 09:34:45;;;;;;;7.10;4.80;;;20.50;99.10;;;;;;5106296;28;20078;-87
2022/05/10 09:36:10;;;;;;;10.98;5.25;;;20.60;98.80;;;;;;5097891;28;20047;-88
2022/05/10 09:38:47;;;;;;;7.32;5.32;;;20.60;99.00;;;;;;5106284;28;20031;-86
2022/05/10 09:41:44;;;;;;;7.43;5.00;;;20.70;99.20;;;;;;5099358;28;20028;-85
2022/05/10 09:44:29;;;;;;;8.88;5.55;;;20.80;99.20;;;;;;5093692;28;20036;-87
2022/05/10 09:47:15;;;;;;;7.45;5.50;;;20.80;99.10;;;;;;5094797;28;20095;-91
2022/05/10 09:49:41;;;;;;;7.25;5.03;;;20.90;99.90;;;;;;5094871;28;20028;-85
2022/05/10 09:52:17;;;;;;;11.10;5.78;;;21.00;99.40;;;;;;5108784;28;20028;-91
2022/05/10 09:54:44;;;;;;;8.63;5.63;;;21.10;97.80;;;;;;5108244;28;20020;-86
2022/05/10 09:57:24;;;;;;;6.85;4.65;;;21.20;97.20;;;;;;5102090;28;20056;-87
2022/05/10 09:59:50;;;;;;;5.45;4.75;;;21.20;96.90;;;;;;5137036;27;20184;-87
2022/05/10 10:02:32;;;;;;;9.65;5.03;;;21.30;96.50;;;;;;5137035;27;20444;-86
2022/05/10 10:04:59;;;;;;;8.02;5.03;;;21.30;96.50;;;;;;5104109;28;20468;-86
2022/05/10 10:07:28;;;;;;;5.22;4.20;;;21.40;96.80;;;;;;5104633;28;20411;-87
2022/05/10 10:10:17;;;;;;;4.93;4.40;;;21.50;96.10;;;;;;5104229;28;20101;-93
2022/05/10 10:12:46;;;;;;;5.50;4.72;;;21.60;95.70;;;;;;5098753;28;20089;-89
2022/05/10 10:15:34;;;;;;;6.43;4.70;;;21.60;95.50;;;;;;5135190;27;20031;-90
2022/05/10 10:18:10;;;;;;;6.35;4.90;;;21.70;94.50;;;;;;5101893;28;20024;-87
2022/05/10 10:20:54;;;;;;;8.55;4.55;;;21.80;94.50;;;;;;5112166;28;20023;-85
2022/05/10 10:23:36;;;;;;;8.10;4.45;;;21.80;94.40;;;;;;5105087;28;20048;-88
2022/05/10 10:26:17;;;;;;;5.30;4.20;;;21.90;94.20;;;;;;5099109;28;20039;-88
2022/05/10 10:28:58;;;;;;;5.38;4.18;;;22.00;94.70;;;;;;5097853;28;20077;-88
2022/05/10 10:31:35;;;;;;;5.93;4.47;;;22.00;92.70;;;;;;5107429;28;20089;-89
2022/05/10 10:34:39;;;;;;;6.70;4.60;;;22.10;92.20;;;;;;5094357;28;20060;-86
2022/05/10 10:37:32;;;;;;;5.30;3.85;;;22.10;92.70;;;;;;5063693;28;20115;-86
2022/05/10 10:40:28;;;;;;;6.22;3.95;;;22.20;90.30;;;;;;5094280;28;20032;-84
2022/05/10 10:42:53;;;;;;;4.97;3.80;;;22.30;91.80;;;;;;5075159;28;20412;-86
2022/05/10 10:45:30;;;;;;;5.95;3.60;;;22.40;91.30;;;;;;5078532;28;20020;-86
2022/05/10 10:48:10;;;;;;;5.93;4.30;;;22.50;90.70;;;;;;5074742;28;20033;-88
2022/05/10 10:50:36;;;;;;;5.15;3.95;;;22.50;90.10;;;;;;5090295;28;20028;-86
2022/05/10 10:53:07;;;;;;;5.63;4.05;;;22.60;90.70;;;;;;5133504;27;20020;-87
2022/05/10 10:56:16;;;;;;;5.45;4.00;;;22.70;90.40;;;;;;5093544;28;20031;-89
2022/05/10 10:59:00;;;;;;;4.88;4.07;;;22.70;88.90;;;;;;5072704;28;20546;-90
2022/05/10 11:01:29;;;;;;;5.57;3.63;;;22.80;88.20;;;;;;5096636;28;20477;-90
2022/05/10 11:04:26;;;;;;;5.18;4.00;;;22.80;90.30;;;;;;5099956;28;20382;-91
2022/05/10 11:06:55;;;;;;;5.75;3.97;;;22.90;89.50;;;;;;5101884;28;20027;-91
2022/05/10 11:09:45;;;;;;;3.85;3.40;;;23.00;89.80;;;;;;5108586;28;20030;-89
2022/05/10 11:12:36;;;;;;;3.83;3.53;;;23.20;86.80;;;;;;5096998;28;20021;-89
2022/05/10 11:15:19;;;;;;;4.25;3.60;;;23.20;86.50;;;;;;5100374;28;20487;-88
2022/05/10 11:18:53;;;;;;;6.32;4.00;;;23.30;83.40;;;;;;5133535;27;20131;-90
2022/05/10 11:21:40;;;;;;;5.25;3.67;;;23.40;81.70;;;;;;4959962;28;20047;-89
2022/05/10 11:24:33;;;;;;;4.35;3.80;;;23.50;81.80;;;;;;5038581;28;20033;-89
2022/05/10 11:27:01;;;;;;;5.78;3.50;;;23.60;79.20;;;;;;5132169;27;20024;-89
2022/05/10 11:29:35;;;;;;;3.97;3.33;;;23.70;79.90;;;;;;5099151;28;20024;-89
2022/05/10 11:32:18;;;;;;;4.60;3.60;;;23.80;78.20;;;;;;5100805;28;20028;-89
2022/05/10 11:35:19;;;;;;;5.38;3.35;;;23.90;78.40;;;;;;5113480;28;20030;-88
2022/05/10 11:38:23;;;;;;;4.70;3.80;;;23.90;76.40;;;;;;5066873;28;20576;-89
2022/05/10 11:41:34;;;;;;;4.85;3.58;;;24.00;77.20;;;;;;5091882;28;20036;-91
2022/05/10 11:44:33;;;;;;;4.13;3.17;;;24.00;75.20;;;;;;5084961;28;20423;-89
2022/05/10 11:47:49;;;;;;;3.33;3.03;;;24.10;73.40;;;;;;5102301;28;20038;-90
2022/05/10 11:53:54;;;;;;;5.35;2.95;;;24.20;73.30;;;;;;5093495;28;20039;-89
2022/05/10 11:56:20;;;;;;;4.22;2.80;;;24.30;70.60;;;;;;5093455;28;20461;-88
2022/05/10 11:59:17;;;;;;;5.03;3.03;;;24.40;71.20;;;;;;5093185;28;20052;-88
2022/05/10 12:02:27;;;;;;;;;;;;;;;;;;;;;
2022/05/10 12:05:08;;;;;;;2.72;2.53;;;24.60;69.30;;;;;;5089957;28;20059;-90
2022/05/10 12:07:46;;;;;;;3.58;2.88;;;24.80;66.70;;;;;;5093340;28;20085;-90
2022/05/10 12:10:37;;;;;;;4.38;3.50;;;24.80;69.80;;;;;;5092450;28;20472;-92
2022/05/10 12:22:47;;;;;;;3.08;2.78;;;25.10;65.80;;;;;;5118005;28;20105;-88
2022/05/10 12:25:50;;;;;;;7.68;3.80;;;25.30;62.50;;;;;;5082102;28;20073;-92
2022/05/10 12:28:39;;;;;;;10.10;7.70;;;25.40;61.40;;;;;;5134483;27;20036;-88
2022/05/10 12:32:07;;;;;;;3.78;3.13;;;25.50;62.30;;;;;;5100804;28;20024;-87
2022/05/10 12:34:56;;;;;;;3.05;2.50;;;25.70;59.90;;;;;;5096182;28;20020;-85
2022/05/10 12:37:33;;;;;;;5.20;2.65;;;25.70;59.80;;;;;;5097091;28;20533;-88
2022/05/10 12:40:16;;;;;;;4.93;3.08;;;25.80;60.20;;;;;;5099321;28;20035;-87
2022/05/10 12:43:00;;;;;;;3.10;2.80;;;25.90;58.00;;;;;;5098057;28;20024;-85
2022/05/10 12:45:40;;;;;;;3.55;2.50;;;26.10;58.90;;;;;;5098692;28;20052;-89
2022/05/10 12:48:28;;;;;;;3.92;2.72;;;26.10;58.30;;;;;;5095974;28;20028;-88
2022/05/10 12:51:14;;;;;;;4.13;2.83;;;26.20;57.70;;;;;;5101968;28;20016;-88
2022/05/10 12:53:55;;;;;;;3.42;2.55;;;26.30;57.50;;;;;;5105596;28;20461;-84
2022/05/10 12:56:29;;;;;;;3.50;2.80;;;26.40;57.10;;;;;;5103618;28;20011;-85
2022/05/10 12:59:22;;;;;;;3.47;2.72;;;26.30;57.30;;;;;;5103434;28;20058;-84
2022/05/10 13:01:48;;;;;;;3.30;2.83;;;26.40;56.90;;;;;;5107063;28;20069;-88
2022/05/10 13:04:19;;;;;;;4.43;2.78;;;26.30;57.30;;;;;;5130748;27;20020;-88
2022/05/10 13:07:26;;;;;;;5.32;3.22;;;26.30;57.60;;;;;;5100324;28;20016;-88
2022/05/10 13:09:59;;;;;;;6.05;2.90;;;26.30;58.40;;;;;;5055356;28;20112;-85
2022/05/10 13:12:34;;;;;;;3.30;3.00;;;26.40;58.00;;;;;;5094218;28;20024;-86
2022/05/10 13:15:30;;;;;;;5.18;3.03;;;26.70;59.10;;;;;;5104949;28;20081;-87
2022/05/10 13:18:01;;;;;;;3.92;3.10;;;26.70;57.60;;;;;;5145979;27;20031;-86
2022/05/10 13:20:33;;;;;;;4.60;3.10;;;26.80;59.10;;;;;;5111547;28;20023;-85
2022/05/10 13:23:08;;;;;;;3.97;2.90;;;26.80;58.00;;;;;;5109366;28;20057;-92
2022/05/10 13:25:37;;;;;;;4.45;3.35;;;26.70;57.00;;;;;;5107043;28;20444;-87
2022/05/10 13:28:18;;;;;;;5.28;3.17;;;26.80;57.50;;;;;;5109527;28;20032;-83
2022/05/10 13:30:54;;;;;;;2.75;2.45;;;27.00;57.50;;;;;;5105313;28;20464;-87
2022/05/10 13:33:37;;;;;;;8.68;3.20;;;27.10;56.30;;;;;;5096558;28;20015;-82
2022/05/10 13:36:07;;;;;;;3.47;2.67;;;27.30;55.40;;;;;;5104339;28;20023;-83
2022/05/10 13:38:49;;;;;;;6.40;3.00;;;27.30;56.60;;;;;;5108904;28;20104;-88
2022/05/10 13:41:32;;;;;;;4.63;3.17;;;27.30;57.20;;;;;;5110260;28;20027;-85
2022/05/10 13:44:12;;;;;;;4.03;3.00;;;27.50;56.10;;;;;;5138517;27;20016;-84
2022/05/10 13:46:53;;;;;;;4.13;3.20;;;27.50;56.00;;;;;;5103274;28;20512;-85